createdAt,value
2017-03-04T00:00:01.692Z,10.71
2017-03-04T00:00:42.193Z,10.7
2017-03-04T00:01:22.687Z,10.56
2017-03-04T00:02:03.147Z,10.61
2017-03-04T00:02:43.740Z,10.78
2017-03-04T00:03:24.230Z,10.76
2017-03-04T00:04:04.690Z,10.71
2017-03-04T00:04:45.191Z,10.64
2017-03-04T00:05:25.698Z,10.74
2017-03-04T00:06:06.196Z,10.55
2017-03-04T00:06:46.744Z,10.67
2017-03-04T00:07:27.249Z,10.63
2017-03-04T00:08:07.743Z,10.71
2017-03-04T00:08:48.208Z,10.52
2017-03-04T00:09:28.733Z,10.52
2017-03-04T00:10:09.212Z,10.56
2017-03-04T00:10:49.760Z,10.61
2017-03-04T00:11:30.305Z,10.51
2017-03-04T00:12:10.799Z,10.48
2017-03-04T00:12:51.308Z,10.61
2017-03-04T00:13:31.812Z,10.59
2017-03-04T00:14:12.319Z,10.7
2017-03-04T00:14:52.845Z,10.6
2017-03-04T00:15:33.300Z,10.63
2017-03-04T00:16:13.765Z,10.47
2017-03-04T00:16:54.294Z,10.61
2017-03-04T00:17:34.735Z,10.51
2017-03-04T00:18:15.279Z,10.52
2017-03-04T00:18:55.776Z,10.33
2017-03-04T00:19:36.302Z,10.53
2017-03-04T00:20:16.854Z,10.48
2017-03-04T00:20:57.324Z,10.51
2017-03-04T00:21:37.966Z,10.61
2017-03-04T00:22:18.372Z,10.53
2017-03-04T00:22:58.896Z,10.47
2017-03-04T00:23:39.326Z,10.53
2017-03-04T00:24:19.846Z,10.53
2017-03-04T00:25:00.465Z,10.6
2017-03-04T00:25:41.119Z,10.48
2017-03-04T00:26:22.504Z,10.42
2017-03-04T00:27:02.958Z,10.45
2017-03-04T00:27:43.515Z,10.45
2017-03-04T00:28:24.012Z,10.41
2017-03-04T00:29:04.519Z,10.34
2017-03-04T00:29:44.969Z,10.34
2017-03-04T00:30:25.542Z,10.44
2017-03-04T00:31:05.991Z,10.27
2017-03-04T00:31:46.506Z,10.3
2017-03-04T00:32:26.980Z,10.36
2017-03-04T00:33:07.443Z,10.29
2017-03-04T00:33:47.974Z,10.34
2017-03-04T00:34:28.494Z,10.42
2017-03-04T00:35:08.972Z,10.4
2017-03-04T00:35:49.451Z,10.47
2017-03-04T00:36:29.947Z,10.55
2017-03-04T00:37:10.443Z,10.48
2017-03-04T00:37:50.957Z,10.51
2017-03-04T00:38:31.414Z,10.42
2017-03-04T00:39:11.884Z,10.4
2017-03-04T00:39:52.366Z,10.41
2017-03-04T00:40:32.924Z,10.45
2017-03-04T00:41:13.355Z,10.51
2017-03-04T00:41:53.866Z,10.45
2017-03-04T00:42:34.417Z,10.42
2017-03-04T00:43:14.907Z,10.36
2017-03-04T00:43:55.371Z,10.33
2017-03-04T00:44:35.874Z,10.42
2017-03-04T00:45:16.419Z,10.36
2017-03-04T00:45:56.858Z,10.4
2017-03-04T00:46:37.357Z,10.34
2017-03-04T00:47:17.857Z,10.36
2017-03-04T00:47:58.370Z,10.32
2017-03-04T00:48:38.991Z,10.4
2017-03-04T00:49:19.476Z,10.34
2017-03-04T00:49:59.966Z,10.34
2017-03-04T00:50:40.461Z,10.42
2017-03-04T00:51:20.933Z,10.4
2017-03-04T00:52:01.506Z,10.29
2017-03-04T00:52:41.969Z,10.33
2017-03-04T00:53:22.482Z,10.32
2017-03-04T00:54:02.936Z,10.29
2017-03-04T00:54:43.434Z,10.33
2017-03-04T00:55:23.970Z,10.34
2017-03-04T00:56:04.440Z,10.26
2017-03-04T00:56:44.964Z,10.33
2017-03-04T00:57:25.434Z,10.33
2017-03-04T00:58:05.968Z,10.3
2017-03-04T00:58:46.504Z,10.38
2017-03-04T00:59:26.961Z,10.26
2017-03-04T01:00:07.464Z,10.29
2017-03-04T01:00:47.997Z,10.29
2017-03-04T01:01:28.462Z,10.33
2017-03-04T01:02:08.955Z,10.15
2017-03-04T01:02:49.520Z,10.22
2017-03-04T01:03:30.152Z,10.05
2017-03-04T01:04:10.679Z,10.17
2017-03-04T01:04:51.160Z,10.22
2017-03-04T01:05:31.673Z,10.12
2017-03-04T01:06:12.162Z,10.11
2017-03-04T01:06:52.597Z,10.07
2017-03-04T01:07:33.129Z,10.07
2017-03-04T01:08:13.592Z,9.93
2017-03-04T01:08:54.257Z,10.08
2017-03-04T01:09:34.757Z,10.11
2017-03-04T01:10:15.245Z,10.05
2017-03-04T01:10:55.808Z,10.09
2017-03-04T01:11:36.279Z,10.07
2017-03-04T01:12:16.769Z,10.09
2017-03-04T01:12:57.256Z,10.02
2017-03-04T01:13:37.733Z,10.12
2017-03-04T01:14:18.250Z,10.07
2017-03-04T01:14:58.845Z,10.01
2017-03-04T01:15:39.296Z,9.97
2017-03-04T01:16:19.751Z,9.96
2017-03-04T01:17:00.281Z,9.97
2017-03-04T01:17:40.757Z,9.97
2017-03-04T01:18:21.275Z,9.9
2017-03-04T01:19:01.760Z,9.94
2017-03-04T01:19:42.256Z,9.81
2017-03-04T01:20:22.712Z,9.93
2017-03-04T01:21:03.216Z,9.84
2017-03-04T01:21:43.682Z,9.93
2017-03-04T01:22:24.213Z,9.93
2017-03-04T01:23:04.755Z,9.97
2017-03-04T01:23:45.262Z,9.99
2017-03-04T01:24:25.763Z,9.9
2017-03-04T01:25:06.235Z,9.86
2017-03-04T01:25:46.730Z,9.89
2017-03-04T01:26:27.314Z,9.93
2017-03-04T01:27:07.744Z,9.9
2017-03-04T01:27:48.294Z,9.91
2017-03-04T01:28:28.784Z,9.87
2017-03-04T01:29:09.305Z,9.87
2017-03-04T01:29:49.798Z,9.9
2017-03-04T01:30:30.264Z,9.93
2017-03-04T01:31:10.790Z,9.84
2017-03-04T01:31:51.308Z,9.93
2017-03-04T01:32:31.949Z,9.81
2017-03-04T01:33:12.422Z,9.83
2017-03-04T01:33:52.965Z,9.91
2017-03-04T01:34:33.405Z,9.9
2017-03-04T01:35:13.950Z,9.9
2017-03-04T01:35:54.401Z,9.86
2017-03-04T01:36:34.920Z,9.89
2017-03-04T01:37:15.365Z,9.94
2017-03-04T01:37:55.880Z,9.81
2017-03-04T01:38:36.411Z,9.84
2017-03-04T01:39:16.855Z,9.74
2017-03-04T01:39:57.340Z,9.86
2017-03-04T01:40:37.835Z,9.78
2017-03-04T01:41:18.337Z,9.97
2017-03-04T01:41:58.796Z,9.99
2017-03-04T01:42:39.337Z,9.9
2017-03-04T01:43:19.814Z,9.93
2017-03-04T01:44:00.305Z,9.86
2017-03-04T01:44:40.787Z,9.83
2017-03-04T01:45:21.283Z,9.76
2017-03-04T01:46:01.786Z,9.74
2017-03-04T01:46:42.248Z,9.72
2017-03-04T01:47:22.795Z,9.79
2017-03-04T01:48:03.320Z,9.81
2017-03-04T01:48:43.805Z,9.76
2017-03-04T01:49:24.273Z,9.78
2017-03-04T01:50:04.754Z,9.84
2017-03-04T01:50:45.246Z,9.79
2017-03-04T01:51:25.777Z,9.93
2017-03-04T01:52:06.291Z,9.9
2017-03-04T01:52:46.790Z,9.87
2017-03-04T01:53:27.424Z,9.79
2017-03-04T01:54:08.083Z,9.84
2017-03-04T01:54:48.591Z,9.78
2017-03-04T01:55:29.094Z,9.72
2017-03-04T01:56:09.584Z,9.81
2017-03-04T01:56:50.088Z,9.71
2017-03-04T01:57:30.557Z,9.72
2017-03-04T01:58:11.056Z,9.75
2017-03-04T01:58:51.651Z,9.72
2017-03-04T01:59:32.126Z,9.79
2017-03-04T02:00:12.608Z,9.74
2017-03-04T02:00:53.187Z,9.75
2017-03-04T02:01:33.687Z,9.74
2017-03-04T02:02:14.150Z,9.84
2017-03-04T02:02:54.661Z,9.89
2017-03-04T02:03:35.098Z,9.71
2017-03-04T02:04:15.593Z,9.83
2017-03-04T02:04:56.097Z,9.74
2017-03-04T02:05:36.610Z,9.66
2017-03-04T02:06:17.088Z,9.69
2017-03-04T02:06:57.612Z,9.72
2017-03-04T02:07:38.061Z,9.78
2017-03-04T02:08:18.590Z,9.75
2017-03-04T02:08:59.145Z,9.72
2017-03-04T02:09:39.619Z,9.72
2017-03-04T02:10:20.092Z,9.75
2017-03-04T02:11:00.619Z,9.66
2017-03-04T02:11:41.065Z,9.68
2017-03-04T02:12:21.708Z,9.74
2017-03-04T02:13:02.249Z,9.66
2017-03-04T02:13:42.791Z,9.72
2017-03-04T02:14:23.326Z,9.68
2017-03-04T02:15:03.795Z,9.6
2017-03-04T02:15:44.288Z,9.6
2017-03-04T02:16:24.799Z,9.66
2017-03-04T02:17:05.338Z,9.65
2017-03-04T02:17:45.835Z,9.69
2017-03-04T02:18:26.374Z,9.74
2017-03-04T02:19:06.827Z,9.61
2017-03-04T02:19:47.396Z,9.64
2017-03-04T02:20:27.794Z,9.58
2017-03-04T02:21:08.285Z,9.57
2017-03-04T02:21:48.807Z,9.6
2017-03-04T02:22:29.346Z,9.61
2017-03-04T02:23:09.859Z,9.5
2017-03-04T02:23:50.361Z,9.46
2017-03-04T02:24:30.904Z,9.47
2017-03-04T02:25:11.334Z,9.5
2017-03-04T02:25:51.829Z,9.38
2017-03-04T02:26:32.380Z,9.54
2017-03-04T02:27:12.888Z,9.46
2017-03-04T02:27:53.385Z,9.57
2017-03-04T02:28:33.837Z,9.5
2017-03-04T02:29:14.329Z,9.58
2017-03-04T02:29:54.831Z,9.56
2017-03-04T02:30:35.371Z,9.54
2017-03-04T02:31:15.889Z,9.53
2017-03-04T02:31:56.441Z,9.53
2017-03-04T02:32:36.930Z,9.64
2017-03-04T02:33:17.459Z,9.54
2017-03-04T02:33:57.891Z,9.54
2017-03-04T02:34:38.367Z,9.38
2017-03-04T02:35:18.880Z,9.38
2017-03-04T02:35:59.379Z,9.46
2017-03-04T02:36:39.822Z,9.46
2017-03-04T02:37:20.327Z,9.53
2017-03-04T02:38:00.878Z,9.33
2017-03-04T02:38:41.319Z,9.36
2017-03-04T02:39:21.806Z,9.39
2017-03-04T02:40:02.296Z,9.35
2017-03-04T02:40:42.780Z,9.54
2017-03-04T02:41:23.311Z,9.54
2017-03-04T02:42:03.804Z,9.53
2017-03-04T02:42:44.273Z,9.47
2017-03-04T02:43:24.855Z,9.53
2017-03-04T02:44:05.382Z,9.5
2017-03-04T02:44:45.803Z,9.39
2017-03-04T02:45:26.308Z,9.5
2017-03-04T02:46:06.867Z,9.53
2017-03-04T02:46:47.303Z,9.43
2017-03-04T02:47:27.852Z,9.5
2017-03-04T02:48:08.337Z,9.43
2017-03-04T02:48:48.845Z,9.38
2017-03-04T02:49:29.312Z,9.28
2017-03-04T02:50:09.788Z,9.32
2017-03-04T02:50:50.310Z,9.38
2017-03-04T02:51:30.795Z,9.28
2017-03-04T02:52:11.303Z,9.32
2017-03-04T02:52:51.866Z,9.31
2017-03-04T02:53:32.315Z,9.31
2017-03-04T02:54:12.867Z,9.39
2017-03-04T02:54:53.402Z,9.23
2017-03-04T02:55:33.869Z,9.26
2017-03-04T02:56:14.361Z,9.26
2017-03-04T02:56:54.884Z,9.21
2017-03-04T02:57:35.379Z,9.36
2017-03-04T02:58:15.886Z,9.32
2017-03-04T02:58:56.347Z,9.31
2017-03-04T02:59:36.876Z,9.26
2017-03-04T03:00:17.340Z,9.13
2017-03-04T03:00:57.865Z,9.02
2017-03-04T03:01:38.340Z,9.13
2017-03-04T03:02:18.835Z,9.18
2017-03-04T03:02:59.312Z,9.04
2017-03-04T03:03:39.801Z,9.05
2017-03-04T03:04:20.288Z,9.13
2017-03-04T03:05:00.797Z,9.15
2017-03-04T03:05:41.273Z,9.18
2017-03-04T03:06:21.829Z,9.13
2017-03-04T03:07:02.313Z,9.14
2017-03-04T03:07:42.806Z,9.15
2017-03-04T03:08:23.339Z,9.14
2017-03-04T03:09:03.824Z,9.15
2017-03-04T03:09:44.315Z,9.01
2017-03-04T03:10:24.848Z,9.04
2017-03-04T03:11:05.330Z,9.1
2017-03-04T03:11:45.819Z,8.96
2017-03-04T03:12:26.315Z,9.04
2017-03-04T03:13:06.873Z,9.14
2017-03-04T03:13:47.319Z,9.14
2017-03-04T03:14:27.880Z,9.18
2017-03-04T03:15:08.392Z,9.11
2017-03-04T03:15:48.871Z,9.17
2017-03-04T03:16:29.419Z,9.02
2017-03-04T03:17:09.883Z,8.98
2017-03-04T03:17:50.423Z,8.96
2017-03-04T03:18:30.943Z,9.01
2017-03-04T03:19:11.493Z,8.96
2017-03-04T03:19:51.932Z,8.96
2017-03-04T03:20:32.494Z,8.95
2017-03-04T03:21:13.005Z,8.92
2017-03-04T03:21:53.432Z,8.94
2017-03-04T03:22:33.956Z,8.92
2017-03-04T03:23:14.466Z,8.95
2017-03-04T03:23:54.936Z,8.96
2017-03-04T03:24:35.498Z,9.01
2017-03-04T03:25:15.959Z,8.96
2017-03-04T03:25:56.440Z,9.08
2017-03-04T03:26:36.983Z,8.96
2017-03-04T03:27:17.616Z,8.96
2017-03-04T03:27:58.143Z,8.96
2017-03-04T03:29:46.383Z,8.81
2017-03-04T03:30:27.334Z,8.81
2017-03-04T03:31:07.881Z,8.81
2017-03-04T03:31:48.388Z,8.83
2017-03-04T03:32:28.916Z,8.79
2017-03-04T03:33:09.389Z,8.83
2017-03-04T03:33:49.914Z,8.83
2017-03-04T03:34:30.350Z,8.79
2017-03-04T03:35:10.869Z,8.83
2017-03-04T03:35:51.381Z,8.87
2017-03-04T03:36:31.868Z,8.84
2017-03-04T03:37:12.374Z,8.87
2017-03-04T03:37:52.931Z,8.81
2017-03-04T03:38:33.439Z,8.92
2017-03-04T03:39:13.955Z,8.95
2017-03-04T03:39:54.460Z,8.92
2017-03-04T03:40:34.941Z,8.87
2017-03-04T03:41:15.401Z,8.92
2017-03-04T03:41:55.925Z,8.92
2017-03-04T03:42:36.407Z,8.95
2017-03-04T03:43:16.964Z,8.96
2017-03-04T03:43:57.551Z,8.92
2017-03-04T03:44:38.044Z,8.89
2017-03-04T03:45:18.521Z,8.95
2017-03-04T03:45:59.016Z,8.92
2017-03-04T03:46:39.500Z,8.95
2017-03-04T03:47:20.083Z,8.92
2017-03-04T03:48:00.523Z,8.87
2017-03-04T03:48:41.046Z,8.8
2017-03-04T03:49:21.569Z,8.84
2017-03-04T03:50:02.025Z,8.86
2017-03-04T03:50:42.511Z,8.8
2017-03-04T03:51:23.022Z,8.83
2017-03-04T03:52:03.510Z,8.84
2017-03-04T03:52:44.007Z,8.83
2017-03-04T03:53:24.480Z,8.84
2017-03-04T03:54:05.014Z,8.87
2017-03-04T03:54:45.579Z,8.83
2017-03-04T03:55:26.080Z,8.94
2017-03-04T03:56:06.551Z,8.94
2017-03-04T03:56:47.038Z,8.91
2017-03-04T03:57:27.531Z,8.8
2017-03-04T03:58:08.018Z,8.81
2017-03-04T03:58:48.585Z,8.86
2017-03-04T03:59:29.029Z,8.76
2017-03-04T04:00:09.582Z,8.74
2017-03-04T04:00:50.056Z,8.7
2017-03-04T04:01:30.602Z,8.83
2017-03-04T04:02:11.046Z,8.86
2017-03-04T04:02:51.522Z,8.83
2017-03-04T04:03:32.021Z,8.86
2017-03-04T04:04:12.498Z,8.77
2017-03-04T04:04:52.994Z,8.81
2017-03-04T04:05:33.492Z,8.71
2017-03-04T04:06:13.974Z,8.76
2017-03-04T04:06:54.517Z,8.74
2017-03-04T04:07:34.999Z,8.81
2017-03-04T04:08:15.447Z,8.79
2017-03-04T04:08:55.978Z,8.77
2017-03-04T04:09:36.480Z,8.77
2017-03-04T04:10:16.915Z,8.76
2017-03-04T04:10:57.421Z,8.77
2017-03-04T04:11:37.891Z,8.66
2017-03-04T04:12:18.413Z,8.74
2017-03-04T04:12:58.879Z,8.74
2017-03-04T04:13:39.409Z,8.71
2017-03-04T04:14:19.871Z,8.79
2017-03-04T04:15:00.421Z,8.77
2017-03-04T04:15:40.896Z,8.76
2017-03-04T04:16:21.495Z,8.8
2017-03-04T04:17:01.903Z,8.83
2017-03-04T04:17:42.435Z,8.73
2017-03-04T04:18:22.889Z,8.74
2017-03-04T04:19:03.389Z,8.89
2017-03-04T04:19:43.837Z,8.84
2017-03-04T04:20:24.305Z,8.81
2017-03-04T04:21:04.789Z,8.76
2017-03-04T04:21:45.312Z,8.76
2017-03-04T04:22:25.766Z,8.61
2017-03-04T04:23:06.248Z,8.7
2017-03-04T04:23:46.755Z,8.65
2017-03-04T04:24:27.230Z,8.63
2017-03-04T04:25:07.733Z,8.68
2017-03-04T04:25:48.217Z,8.7
2017-03-04T04:26:28.773Z,8.76
2017-03-04T04:27:09.264Z,8.52
2017-03-04T04:27:49.738Z,8.63
2017-03-04T04:28:30.265Z,8.65
2017-03-04T04:29:10.747Z,8.59
2017-03-04T04:29:51.231Z,8.77
2017-03-04T04:30:31.745Z,8.74
2017-03-04T04:31:12.192Z,8.63
2017-03-04T04:31:52.648Z,8.68
2017-03-04T04:32:33.137Z,8.58
2017-03-04T04:33:13.655Z,8.74
2017-03-04T04:33:54.150Z,8.68
2017-03-04T04:34:34.667Z,8.58
2017-03-04T04:35:15.142Z,8.58
2017-03-04T04:35:55.609Z,8.58
2017-03-04T04:36:36.101Z,8.58
2017-03-04T04:37:16.577Z,8.56
2017-03-04T04:37:57.083Z,8.48
2017-03-04T04:38:37.680Z,8.52
2017-03-04T04:39:18.130Z,8.55
2017-03-04T04:39:58.737Z,8.58
2017-03-04T04:40:39.254Z,8.65
2017-03-04T04:41:19.734Z,8.68
2017-03-04T04:42:00.295Z,8.68
2017-03-04T04:42:40.697Z,8.55
2017-03-04T04:43:21.171Z,8.56
2017-03-04T04:44:01.657Z,8.5
2017-03-04T04:44:42.124Z,8.52
2017-03-04T04:45:22.642Z,8.52
2017-03-04T04:46:03.299Z,8.58
2017-03-04T04:46:43.758Z,8.56
2017-03-04T04:47:24.316Z,8.62
2017-03-04T04:48:04.884Z,8.48
2017-03-04T04:48:45.291Z,8.45
2017-03-04T04:49:25.969Z,8.37
2017-03-04T04:50:06.435Z,8.47
2017-03-04T04:50:46.962Z,8.44
2017-03-04T04:51:27.497Z,8.44
2017-03-04T04:52:07.958Z,8.37
2017-03-04T04:52:48.478Z,8.47
2017-03-04T04:53:28.956Z,8.41
2017-03-04T04:54:09.454Z,8.44
2017-03-04T04:54:49.950Z,8.44
2017-03-04T04:55:30.457Z,8.43
2017-03-04T04:56:10.966Z,8.43
2017-03-04T04:56:51.439Z,8.45
2017-03-04T04:57:31.907Z,8.38
2017-03-04T04:58:12.403Z,8.37
2017-03-04T04:58:52.866Z,8.47
2017-03-04T04:59:33.370Z,8.44
2017-03-04T05:00:13.813Z,8.38
2017-03-04T05:00:54.332Z,8.47
2017-03-04T05:01:34.824Z,8.41
2017-03-04T05:02:15.309Z,8.4
2017-03-04T05:02:55.815Z,8.4
2017-03-04T05:03:36.258Z,8.47
2017-03-04T05:04:16.775Z,8.5
2017-03-04T05:04:57.281Z,8.52
2017-03-04T05:05:37.752Z,8.44
2017-03-04T05:06:18.240Z,8.44
2017-03-04T05:06:58.733Z,8.4
2017-03-04T05:07:39.211Z,8.29
2017-03-04T05:08:19.723Z,8.28
2017-03-04T05:09:00.267Z,8.43
2017-03-04T05:09:40.697Z,8.41
2017-03-04T05:10:21.216Z,8.47
2017-03-04T05:11:01.693Z,8.22
2017-03-04T05:11:42.167Z,8.33
2017-03-04T05:12:22.750Z,8.29
2017-03-04T05:13:03.232Z,8.28
2017-03-04T05:13:43.713Z,8.33
2017-03-04T05:14:24.175Z,8.33
2017-03-04T05:15:04.663Z,8.37
2017-03-04T05:15:45.123Z,8.48
2017-03-04T05:16:25.644Z,8.55
2017-03-04T05:17:06.144Z,8.53
2017-03-04T05:17:46.640Z,8.53
2017-03-04T05:18:27.083Z,8.52
2017-03-04T05:19:07.632Z,8.61
2017-03-04T05:19:48.132Z,8.37
2017-03-04T05:20:28.590Z,8.08
2017-03-04T05:21:09.047Z,8.01
2017-03-04T05:21:49.568Z,8.11
2017-03-04T05:22:30.164Z,8.01
2017-03-04T05:23:10.595Z,8.08
2017-03-04T05:23:51.080Z,8.11
2017-03-04T05:24:31.554Z,8.01
2017-03-04T05:25:12.142Z,8.12
2017-03-04T05:25:52.585Z,8.16
2017-03-04T05:26:33.087Z,8.22
2017-03-04T05:27:13.616Z,8.29
2017-03-04T05:27:54.106Z,8.29
2017-03-04T05:28:34.579Z,8.25
2017-03-04T05:29:15.088Z,8.3
2017-03-04T05:29:55.553Z,8.36
2017-03-04T05:30:35.987Z,8.25
2017-03-04T05:31:16.550Z,8.33
2017-03-04T05:31:57.019Z,8.33
2017-03-04T05:32:37.526Z,8.19
2017-03-04T05:33:17.987Z,8.25
2017-03-04T05:33:58.508Z,8.18
2017-03-04T05:34:38.979Z,8.26
2017-03-04T05:35:19.482Z,8.33
2017-03-04T05:35:59.947Z,8.26
2017-03-04T05:36:40.420Z,8.4
2017-03-04T05:37:20.993Z,8.37
2017-03-04T05:38:01.460Z,8.29
2017-03-04T05:38:41.963Z,8.28
2017-03-04T05:39:22.434Z,8.29
2017-03-04T05:40:02.991Z,8.15
2017-03-04T05:40:43.455Z,8
2017-03-04T05:41:23.987Z,8.02
2017-03-04T05:42:04.424Z,8.1
2017-03-04T05:42:45.016Z,8.15
2017-03-04T05:43:25.623Z,8.23
2017-03-04T05:44:06.030Z,8.26
2017-03-04T05:44:46.528Z,8.29
2017-03-04T05:45:27.054Z,8.15
2017-03-04T05:46:07.550Z,8.19
2017-03-04T05:46:48.070Z,8.08
2017-03-04T05:47:28.563Z,8.18
2017-03-04T05:48:09.060Z,8.16
2017-03-04T05:48:49.518Z,8.16
2017-03-04T05:49:30.022Z,8.28
2017-03-04T05:50:10.518Z,8.29
2017-03-04T05:50:51.009Z,8.4
2017-03-04T05:51:31.508Z,8.28
2017-03-04T05:52:12.006Z,8.26
2017-03-04T05:52:52.511Z,8.26
2017-03-04T05:53:32.966Z,8.3
2017-03-04T05:54:13.453Z,8.26
2017-03-04T05:54:54.133Z,8.33
2017-03-04T05:55:34.916Z,8.41
2017-03-04T05:56:15.427Z,8.43
2017-03-04T05:56:55.885Z,8.34
2017-03-04T05:57:36.478Z,8.44
2017-03-04T05:58:17.025Z,8.36
2017-03-04T05:58:57.505Z,8.3
2017-03-04T05:59:38.027Z,8.37
2017-03-04T06:00:18.732Z,8.41
2017-03-04T06:00:59.168Z,8.4
2017-03-04T06:01:39.986Z,8.4
2017-03-04T06:02:20.753Z,8.34
2017-03-04T06:03:01.262Z,8.45
2017-03-04T06:03:41.777Z,8.36
2017-03-04T06:04:22.961Z,8.38
2017-03-04T06:05:03.175Z,8.47
2017-03-04T06:05:43.738Z,8.41
2017-03-04T06:06:24.192Z,8.44
2017-03-04T06:07:04.705Z,8.44
2017-03-04T06:07:45.184Z,8.38
2017-03-04T06:08:25.649Z,8.33
2017-03-04T06:09:06.091Z,8.37
2017-03-04T06:09:46.611Z,8.3
2017-03-04T06:10:27.131Z,8.33
2017-03-04T06:11:07.601Z,8.43
2017-03-04T06:11:48.082Z,8.33
2017-03-04T06:12:28.673Z,8.44
2017-03-04T06:13:09.206Z,8.38
2017-03-04T06:13:50.129Z,8.38
2017-03-04T06:14:30.603Z,8.28
2017-03-04T06:15:11.360Z,8.33
2017-03-04T06:15:52.089Z,8.26
2017-03-04T06:16:32.661Z,8.08
2017-03-04T06:17:13.214Z,8.12
2017-03-04T06:17:53.701Z,8.1
2017-03-04T06:18:34.155Z,8.05
2017-03-04T06:19:14.661Z,8.19
2017-03-04T06:19:55.115Z,8.28
2017-03-04T06:20:35.751Z,8.26
2017-03-04T06:21:19.763Z,8.12
2017-03-04T06:22:00.442Z,8.1
2017-03-04T06:22:40.891Z,8.11
2017-03-04T06:23:21.675Z,8.25
2017-03-04T06:24:02.277Z,8.15
2017-03-04T06:24:42.851Z,8.11
2017-03-04T06:25:23.274Z,7.98
2017-03-04T06:26:03.755Z,8.02
2017-03-04T06:26:44.280Z,8.08
2017-03-04T06:27:24.704Z,8.18
2017-03-04T06:28:05.195Z,8.11
2017-03-04T06:28:45.670Z,8.12
2017-03-04T06:29:26.126Z,8.19
2017-03-04T06:30:06.685Z,8.25
2017-03-04T06:30:47.218Z,8.23
2017-03-04T06:31:27.635Z,8.25
2017-03-04T06:32:08.140Z,8.04
2017-03-04T06:32:48.636Z,8.08
2017-03-04T06:33:29.128Z,7.98
2017-03-04T06:34:09.602Z,7.9
2017-03-04T06:34:50.087Z,7.85
2017-03-04T06:35:30.695Z,7.95
2017-03-04T06:36:11.143Z,8.12
2017-03-04T06:36:51.642Z,8.02
2017-03-04T06:37:32.155Z,8.1
2017-03-04T06:38:12.693Z,8.02
2017-03-04T06:38:53.232Z,8.12
2017-03-04T06:39:34.673Z,8.19
2017-03-04T06:40:18.473Z,8.1
2017-03-04T06:40:59.031Z,8.08
2017-03-04T06:41:39.463Z,8.07
2017-03-04T06:42:20.159Z,7.95
2017-03-04T06:43:00.768Z,7.82
2017-03-04T06:43:41.224Z,7.92
2017-03-04T06:44:21.716Z,8.1
2017-03-04T06:45:02.252Z,8
2017-03-04T06:45:42.793Z,7.82
2017-03-04T06:46:23.250Z,7.89
2017-03-04T06:47:03.787Z,7.64
2017-03-04T06:47:44.265Z,7.63
2017-03-04T06:48:24.717Z,7.85
2017-03-04T06:49:05.240Z,7.9
2017-03-04T06:49:45.727Z,7.85
2017-03-04T06:50:26.227Z,7.89
2017-03-04T06:51:06.760Z,7.82
2017-03-04T06:51:47.241Z,7.67
2017-03-04T06:52:27.808Z,7.74
2017-03-04T06:53:08.291Z,7.68
2017-03-04T06:53:48.756Z,7.92
2017-03-04T06:54:29.311Z,8.05
2017-03-04T06:55:09.728Z,8.19
2017-03-04T06:55:50.234Z,8.22
2017-03-04T06:56:30.797Z,8.16
2017-03-04T06:57:11.259Z,8.07
2017-03-04T06:57:51.757Z,8.16
2017-03-04T06:58:32.255Z,8.28
2017-03-04T06:59:12.775Z,8.34
2017-03-04T06:59:53.333Z,8.62
2017-03-04T07:00:33.792Z,8.7
2017-03-04T07:01:14.277Z,8.77
2017-03-04T07:01:54.753Z,8.83
2017-03-04T07:02:35.297Z,8.98
2017-03-04T07:03:15.791Z,8.96
2017-03-04T07:03:56.260Z,9.1
2017-03-04T07:04:36.767Z,8.62
2017-03-04T07:05:17.243Z,8.34
2017-03-04T07:05:57.757Z,8.53
2017-03-04T07:06:38.192Z,8.63
2017-03-04T07:07:18.676Z,8.77
2017-03-04T07:07:59.196Z,8.98
2017-03-04T07:08:39.743Z,8.91
2017-03-04T07:09:20.205Z,8.71
2017-03-04T07:10:00.712Z,8.5
2017-03-04T07:10:41.256Z,8.68
2017-03-04T07:11:21.915Z,8.74
2017-03-04T07:12:02.389Z,8.47
2017-03-04T07:12:42.876Z,8.28
2017-03-04T07:13:23.361Z,8.59
2017-03-04T07:14:03.886Z,8.65
2017-03-04T07:14:44.378Z,8.41
2017-03-04T07:15:24.912Z,8.63
2017-03-04T07:16:05.407Z,8.52
2017-03-04T07:16:45.914Z,8.7
2017-03-04T07:17:26.435Z,8.74
2017-03-04T07:18:06.977Z,8.65
2017-03-04T07:18:47.425Z,8.41
2017-03-04T07:19:27.890Z,8.55
2017-03-04T07:20:08.400Z,8.41
2017-03-04T07:20:48.903Z,8.62
2017-03-04T07:21:29.411Z,8.56
2017-03-04T07:22:09.920Z,8.58
2017-03-04T07:22:50.399Z,8.73
2017-03-04T07:23:30.958Z,8.4
2017-03-04T07:24:11.412Z,8.47
2017-03-04T07:24:51.875Z,8.61
2017-03-04T07:25:32.410Z,8.45
2017-03-04T07:26:12.870Z,8.68
2017-03-04T07:26:53.356Z,8.65
2017-03-04T07:27:33.860Z,8.79
2017-03-04T07:28:14.348Z,8.84
2017-03-04T07:28:54.813Z,8.95
2017-03-04T07:29:35.353Z,8.92
2017-03-04T07:30:15.834Z,8.77
2017-03-04T07:30:56.335Z,8.65
2017-03-04T07:31:36.860Z,8.66
2017-03-04T07:32:17.335Z,8.87
2017-03-04T07:32:57.864Z,8.62
2017-03-04T07:33:38.346Z,8.79
2017-03-04T07:34:18.879Z,8.83
2017-03-04T07:34:59.336Z,8.96
2017-03-04T07:35:39.821Z,9.05
2017-03-04T07:36:20.309Z,9.1
2017-03-04T07:37:00.794Z,8.83
2017-03-04T07:37:41.300Z,8.87
2017-03-04T07:38:21.819Z,8.56
2017-03-04T07:39:02.291Z,8.71
2017-03-04T07:39:42.775Z,8.77
2017-03-04T07:40:23.302Z,8.65
2017-03-04T07:41:03.793Z,8.38
2017-03-04T07:41:44.257Z,8.38
2017-03-04T07:42:24.770Z,8.48
2017-03-04T07:43:05.228Z,8.68
2017-03-04T07:43:45.764Z,8.81
2017-03-04T07:44:26.374Z,8.52
2017-03-04T07:45:06.897Z,8.55
2017-03-04T07:45:47.440Z,8.29
2017-03-04T07:46:27.898Z,8.22
2017-03-04T07:47:08.404Z,8.12
2017-03-04T07:47:48.918Z,8.25
2017-03-04T07:48:29.413Z,8.52
2017-03-04T07:49:09.943Z,8.55
2017-03-04T07:49:50.399Z,8.71
2017-03-04T07:50:30.926Z,8.83
2017-03-04T07:51:11.398Z,8.62
2017-03-04T07:51:51.892Z,8.56
2017-03-04T07:52:32.565Z,8.52
2017-03-04T07:53:13.071Z,8.68
2017-03-04T07:53:54.052Z,8.65
2017-03-04T07:54:34.506Z,8.61
2017-03-04T07:55:15.118Z,8.71
2017-03-04T07:55:55.714Z,8.74
2017-03-04T07:56:36.237Z,8.87
2017-03-04T07:57:16.716Z,8.94
2017-03-04T07:57:57.239Z,9.13
2017-03-04T07:58:37.702Z,9.28
2017-03-04T07:59:18.233Z,8.96
2017-03-04T07:59:58.713Z,8.73
2017-03-04T08:00:39.260Z,8.55
2017-03-04T08:01:19.722Z,8.5
2017-03-04T08:02:00.243Z,8.77
2017-03-04T08:02:40.749Z,8.83
2017-03-04T08:03:21.301Z,8.94
2017-03-04T08:04:01.795Z,9.13
2017-03-04T08:04:42.300Z,9.29
2017-03-04T08:05:22.841Z,9.32
2017-03-04T08:06:03.271Z,9.35
2017-03-04T08:06:43.735Z,9.26
2017-03-04T08:07:24.223Z,9.39
2017-03-04T08:08:04.846Z,9.36
2017-03-04T08:08:45.426Z,9.33
2017-03-04T08:09:26.050Z,9.18
2017-03-04T08:10:06.562Z,9.28
2017-03-04T08:10:47.047Z,9.08
2017-03-04T08:11:27.562Z,8.81
2017-03-04T08:12:08.060Z,8.92
2017-03-04T08:12:48.740Z,8.99
2017-03-04T08:13:29.287Z,9.1
2017-03-04T08:14:10.090Z,9.18
2017-03-04T08:14:50.578Z,9.04
2017-03-04T08:15:31.112Z,9.14
2017-03-04T08:16:11.628Z,9.1
2017-03-04T08:16:52.133Z,8.99
2017-03-04T08:17:32.598Z,9.08
2017-03-04T08:18:13.116Z,9.4
2017-03-04T08:18:53.578Z,9.51
2017-03-04T08:19:34.058Z,9.53
2017-03-04T08:20:14.596Z,9.58
2017-03-04T08:20:55.042Z,9.74
2017-03-04T08:21:35.556Z,9.65
2017-03-04T08:22:16.117Z,9.36
2017-03-04T08:22:56.726Z,9.38
2017-03-04T08:23:37.105Z,9.29
2017-03-04T08:24:17.587Z,9.38
2017-03-04T08:24:58.084Z,9.23
2017-03-04T08:25:38.559Z,9.1
2017-03-04T08:26:19.138Z,9.18
2017-03-04T08:26:59.654Z,9.08
2017-03-04T08:27:40.138Z,9.11
2017-03-04T08:28:20.642Z,9.1
2017-03-04T08:29:01.123Z,9.33
2017-03-04T08:29:41.660Z,9.56
2017-03-04T08:30:22.212Z,9.6
2017-03-04T08:31:02.769Z,9.56
2017-03-04T08:31:43.243Z,9.76
2017-03-04T08:32:23.765Z,9.68
2017-03-04T08:33:04.230Z,9.61
2017-03-04T08:33:44.829Z,9.54
2017-03-04T08:34:25.374Z,9.71
2017-03-04T08:35:05.873Z,9.71
2017-03-04T08:35:46.332Z,9.71
2017-03-04T08:36:26.837Z,9.69
2017-03-04T08:37:07.325Z,9.83
2017-03-04T08:37:47.870Z,10.09
2017-03-04T08:38:28.340Z,10.2
2017-03-04T08:39:08.879Z,10.14
2017-03-04T08:39:49.356Z,10.18
2017-03-04T08:40:29.834Z,10.3
2017-03-04T08:41:10.366Z,10.47
2017-03-04T08:41:50.791Z,10.51
2017-03-04T08:42:31.305Z,10.64
2017-03-04T08:43:11.831Z,10.61
2017-03-04T08:43:52.316Z,10.84
2017-03-04T08:44:32.778Z,10.81
2017-03-04T08:45:13.222Z,10.81
2017-03-04T08:45:53.742Z,10.89
2017-03-04T08:46:34.260Z,10.89
2017-03-04T08:47:14.867Z,11.07
2017-03-04T08:47:55.480Z,11.04
2017-03-04T08:48:35.884Z,10.94
2017-03-04T08:49:16.302Z,11
2017-03-04T08:49:56.874Z,11.18
2017-03-04T08:50:37.404Z,11.25
2017-03-04T08:51:17.916Z,11.33
2017-03-04T08:51:58.486Z,11.51
2017-03-04T08:52:39.042Z,11.61
2017-03-04T08:53:19.791Z,11.64
2017-03-04T08:54:00.155Z,11.55
2017-03-04T08:54:40.575Z,11.32
2017-03-04T08:55:21.156Z,11.15
2017-03-04T08:56:01.628Z,11.29
2017-03-04T08:56:42.086Z,11.17
2017-03-04T08:57:22.612Z,11.37
2017-03-04T08:58:03.260Z,11.57
2017-03-04T08:58:43.884Z,11.46